Time;durP1;ratioP1;P1;durP2;ratioP2;P2;SDS_P1;SDS_P2;PMS_P1;PMS_P2;Temp;Humidity;BMP_temperature;BMP_pressure;BME280_temperature;BME280_humidity;BME280_pressure;Samples;Min_cycle;Max_cycle;Signal;HPM_P1;HPM_P2
2022/12/04 00:01:17;;;;;;;23.00;13.77;;;3.60;82.30;;;;;;5040074;28;20255;-68
2022/12/04 00:03:45;;;;;;;32.72;19.20;;;3.70;82.20;;;;;;5039564;28;20232;-69
2022/12/04 00:06:17;;;;;;;28.30;15.85;;;3.70;82.20;;;;;;5038554;28;20534;-70
2022/12/04 00:08:46;;;;;;;27.27;14.88;;;3.70;82.30;;;;;;5040532;28;20209;-70
2022/12/04 00:11:18;;;;;;;25.55;15.60;;;3.70;82.20;;;;;;5040597;28;20208;-70
2022/12/04 00:13:47;;;;;;;25.92;15.05;;;3.70;82.20;;;;;;5037965;28;20279;-69
2022/12/04 00:16:17;;;;;;;30.63;16.65;;;3.80;82.30;;;;;;5040296;28;20201;-70
2022/12/04 00:18:46;;;;;;;30.02;18.05;;;3.70;82.30;;;;;;5041634;28;20203;-70
2022/12/04 00:21:15;;;;;;;28.50;17.20;;;3.80;82.40;;;;;;5039238;28;20204;-70
2022/12/04 00:23:44;;;;;;;25.10;14.85;;;3.80;82.40;;;;;;5035552;28;20229;-68
2022/12/04 00:26:14;;;;;;;25.92;15.90;;;3.80;82.30;;;;;;5037634;28;20271;-70
2022/12/04 00:28:44;;;;;;;27.65;16.02;;;3.80;82.20;;;;;;5039558;28;20196;-70
2022/12/04 00:31:14;;;;;;;24.80;15.25;;;3.90;82.20;;;;;;5040056;28;20208;-69
2022/12/04 00:33:43;;;;;;;29.40;16.27;;;3.80;82.20;;;;;;5040973;28;20283;-69
2022/12/04 00:36:14;;;;;;;26.13;14.57;;;3.80;82.30;;;;;;5039086;28;20233;-69
2022/12/04 00:38:43;;;;;;;25.83;15.00;;;3.80;82.20;;;;;;5040422;28;20254;-69
2022/12/04 00:41:13;;;;;;;25.25;13.95;;;3.80;82.20;;;;;;5039211;28;20192;-69
2022/12/04 00:43:44;;;;;;;24.77;15.23;;;3.80;82.20;;;;;;5041416;28;20727;-70
2022/12/04 00:46:12;;;;;;;24.52;15.50;;;3.80;82.20;;;;;;5044097;28;20588;-69
2022/12/04 00:48:41;;;;;;;28.42;17.20;;;3.80;82.30;;;;;;5040904;28;20203;-69
2022/12/04 00:51:11;;;;;;;30.20;17.05;;;3.80;82.30;;;;;;5039595;28;20225;-69
2022/12/04 00:53:40;;;;;;;28.27;15.50;;;3.80;82.30;;;;;;5042993;28;20225;-69
2022/12/04 00:56:10;;;;;;;27.73;15.98;;;3.80;82.40;;;;;;5042100;28;20862;-70
2022/12/04 00:58:38;;;;;;;26.58;15.50;;;3.80;82.40;;;;;;5041758;28;20196;-70
2022/12/04 01:01:10;;;;;;;26.30;15.95;;;3.80;82.40;;;;;;5037549;28;20238;-69
2022/12/04 01:03:38;;;;;;;27.75;15.27;;;3.80;82.40;;;;;;5039200;28;20714;-68
2022/12/04 01:06:08;;;;;;;27.92;15.05;;;3.80;82.60;;;;;;5042002;28;20204;-71
2022/12/04 01:08:35;;;;;;;25.80;15.82;;;3.90;82.50;;;;;;5036274;28;20263;-70
2022/12/04 01:11:06;;;;;;;24.75;14.35;;;3.90;82.50;;;;;;5036453;28;20227;-68
2022/12/04 01:13:34;;;;;;;25.40;14.77;;;3.90;82.40;;;;;;5044046;28;20636;-70
2022/12/04 01:16:02;;;;;;;24.85;13.77;;;3.90;82.30;;;;;;5035834;28;20211;-70
2022/12/04 01:18:31;;;;;;;21.88;12.80;;;3.90;82.40;;;;;;5039726;28;20206;-70
2022/12/04 01:20:59;;;;;;;25.13;14.63;;;3.90;82.40;;;;;;5038579;28;20674;-70
2022/12/04 01:23:27;;;;;;;26.30;14.48;;;3.90;82.40;;;;;;5040282;28;20431;-69
2022/12/04 01:25:57;;;;;;;25.85;14.93;;;3.90;82.40;;;;;;5039631;28;20239;-69
2022/12/04 01:28:26;;;;;;;30.13;15.30;;;3.90;82.40;;;;;;5038283;28;20259;-70
2022/12/04 01:30:59;;;;;;;25.02;13.90;;;3.90;82.40;;;;;;5038551;28;20275;-69
2022/12/04 01:33:27;;;;;;;30.05;15.27;;;3.90;82.40;;;;;;5035239;28;20229;-69
2022/12/04 01:35:58;;;;;;;26.08;14.75;;;3.90;82.40;;;;;;5036120;28;20213;-69
2022/12/04 01:38:26;;;;;;;26.60;14.80;;;3.90;82.50;;;;;;5037546;28;20205;-69
2022/12/04 01:40:55;;;;;;;25.45;14.00;;;3.90;82.50;;;;;;5038742;28;20193;-68
2022/12/04 01:43:24;;;;;;;25.98;15.45;;;3.90;82.50;;;;;;5039446;28;20252;-69
2022/12/04 01:45:54;;;;;;;26.52;14.48;;;3.90;82.60;;;;;;5043149;28;20212;-70
2022/12/04 01:48:26;;;;;;;24.05;13.57;;;3.90;82.60;;;;;;5038012;28;20201;-71
2022/12/04 01:51:02;;;;;;;21.73;12.63;;;3.90;82.60;;;;;;5038220;28;20262;-69
2022/12/04 01:53:31;;;;;;;27.67;15.05;;;3.90;82.60;;;;;;5036411;28;20225;-70
2022/12/04 01:56:00;;;;;;;28.42;14.77;;;4.00;82.50;;;;;;5038705;28;20216;-69
2022/12/04 01:58:32;;;;;;;27.95;14.13;;;4.00;82.50;;;;;;5038894;28;20200;-69
2022/12/04 02:01:04;;;;;;;26.27;14.35;;;4.00;82.50;;;;;;5035497;28;20216;-69
2022/12/04 02:03:37;;;;;;;24.30;14.48;;;4.00;82.60;;;;;;5036176;28;21197;-69
2022/12/04 02:06:07;;;;;;;23.42;13.05;;;4.00;82.70;;;;;;5041575;28;20213;-69
2022/12/04 02:08:37;;;;;;;27.25;13.60;;;4.10;82.60;;;;;;5034106;28;20243;-68
2022/12/04 02:11:17;;;;;;;25.92;13.85;;;4.10;82.60;;;;;;5038155;28;20216;-68
2022/12/04 02:13:56;;;;;;;25.65;14.73;;;4.10;82.50;;;;;;5034868;28;20273;-69
2022/12/04 02:16:33;;;;;;;25.70;13.95;;;4.10;82.50;;;;;;5040568;28;20196;-70
2022/12/04 02:19:12;;;;;;;24.02;13.20;;;4.10;82.50;;;;;;5042621;28;20212;-69
2022/12/04 02:21:45;;;;;;;27.17;13.05;;;4.10;82.50;;;;;;5036475;28;20193;-69
2022/12/04 02:24:41;;;;;;;23.05;13.52;;;4.10;82.60;;;;;;5037173;28;20902;-70
2022/12/04 02:27:28;;;;;;;27.13;13.63;;;4.10;82.60;;;;;;5039298;28;20212;-68
2022/12/04 02:30:02;;;;;;;26.55;13.75;;;4.10;82.60;;;;;;5040386;28;20889;-70
2022/12/04 02:32:38;;;;;;;26.40;13.68;;;4.10;82.60;;;;;;5041147;28;20188;-70
2022/12/04 02:35:13;;;;;;;25.83;14.75;;;4.10;82.60;;;;;;5037337;28;20950;-70
2022/12/04 02:37:45;;;;;;;27.17;14.43;;;4.10;82.60;;;;;;5046179;28;20208;-70
2022/12/04 02:40:19;;;;;;;30.67;15.52;;;4.10;82.60;;;;;;5051717;28;20258;-68
2022/12/04 02:42:52;;;;;;;25.30;13.63;;;4.10;82.60;;;;;;5044976;28;20208;-68
2022/12/04 02:45:26;;;;;;;27.70;14.48;;;4.10;82.60;;;;;;5047195;28;20259;-69
2022/12/04 02:47:55;;;;;;;26.75;15.10;;;4.00;82.70;;;;;;5050662;28;20201;-70
2022/12/04 02:50:24;;;;;;;27.02;14.68;;;4.00;82.80;;;;;;5047188;28;20205;-69
2022/12/04 02:52:57;;;;;;;28.48;15.10;;;4.00;82.80;;;;;;5045515;28;20294;-69
2022/12/04 02:55:31;;;;;;;28.05;15.13;;;4.00;82.80;;;;;;5047458;28;20208;-69
2022/12/04 02:58:04;;;;;;;26.60;14.82;;;4.00;82.90;;;;;;5045463;28;20218;-69
2022/12/04 03:00:36;;;;;;;30.50;15.90;;;4.00;82.90;;;;;;5047738;28;20212;-70
2022/12/04 03:03:08;;;;;;;29.10;14.60;;;4.00;82.90;;;;;;5043794;28;20201;-70
2022/12/04 03:05:46;;;;;;;26.90;14.43;;;4.00;83.10;;;;;;5045105;28;20204;-69
2022/12/04 03:08:18;;;;;;;24.92;15.38;;;4.00;83.10;;;;;;5049408;28;20196;-70
2022/12/04 03:10:50;;;;;;;30.83;15.07;;;4.00;83.20;;;;;;5048123;28;20631;-69
2022/12/04 03:13:22;;;;;;;32.40;15.18;;;4.00;83.20;;;;;;5045835;28;20225;-70
2022/12/04 03:15:59;;;;;;;31.73;15.82;;;4.00;83.30;;;;;;5041762;28;20201;-69
2022/12/04 03:18:30;;;;;;;28.60;16.00;;;4.00;83.30;;;;;;5039668;28;20193;-70
2022/12/04 03:21:04;;;;;;;27.88;15.00;;;4.00;83.30;;;;;;5041546;28;20205;-69
2022/12/04 03:23:37;;;;;;;32.08;15.50;;;4.00;83.30;;;;;;5039805;28;20274;-69
2022/12/04 03:26:10;;;;;;;30.80;15.93;;;4.00;83.30;;;;;;5044962;28;20897;-69
2022/12/04 03:28:48;;;;;;;25.77;14.98;;;4.00;83.30;;;;;;5042105;28;20201;-69
2022/12/04 03:31:22;;;;;;;28.00;14.98;;;4.10;83.40;;;;;;5040716;28;20699;-69
2022/12/04 03:33:51;;;;;;;27.23;14.52;;;4.10;83.30;;;;;;5041057;28;20236;-69
2022/12/04 03:36:25;;;;;;;27.88;14.13;;;4.10;83.40;;;;;;5043139;28;20201;-69
2022/12/04 03:38:58;;;;;;;25.77;14.35;;;4.10;83.40;;;;;;5041455;28;20196;-70
2022/12/04 03:41:31;;;;;;;27.25;15.20;;;4.10;83.40;;;;;;5041348;28;20196;-70
2022/12/04 03:44:11;;;;;;;29.30;15.75;;;4.10;83.40;;;;;;5058339;28;20236;-70
2022/12/04 03:46:49;;;;;;;26.17;14.48;;;4.10;83.50;;;;;;5040183;28;20270;-71
2022/12/04 03:49:23;;;;;;;25.40;13.75;;;4.00;83.50;;;;;;5040956;28;20196;-68
2022/12/04 03:51:55;;;;;;;23.42;12.85;;;4.00;83.50;;;;;;5042533;28;20298;-68
2022/12/04 03:54:29;;;;;;;25.63;14.55;;;4.00;83.50;;;;;;5040062;28;20224;-71
2022/12/04 03:57:00;;;;;;;28.02;15.30;;;4.00;83.50;;;;;;5043072;28;20193;-70
2022/12/04 03:59:33;;;;;;;29.27;15.10;;;4.10;83.70;;;;;;5040048;28;20188;-70
2022/12/04 04:02:08;;;;;;;25.98;12.77;;;4.10;83.70;;;;;;5038349;28;20215;-69
2022/12/04 04:04:39;;;;;;;29.42;14.68;;;4.20;83.70;;;;;;5038352;28;20228;-68
2022/12/04 04:07:17;;;;;;;37.63;16.10;;;4.20;83.50;;;;;;5040037;28;20350;-70
2022/12/04 04:09:48;;;;;;;27.85;13.95;;;4.20;83.50;;;;;;5039246;28;20208;-69
2022/12/04 04:12:19;;;;;;;29.50;15.15;;;4.20;83.50;;;;;;5039368;28;20216;-70
2022/12/04 04:26:08;;;;;;;26.77;13.48;;;4.10;83.70;;;;;;5041581;28;20212;-69
2022/12/04 04:28:38;;;;;;;27.05;14.90;;;4.10;83.70;;;;;;5039304;28;20661;-70
2022/12/04 04:31:15;;;;;;;23.35;13.57;;;4.10;83.80;;;;;;5039430;28;20201;-69
2022/12/04 04:33:51;;;;;;;27.98;15.25;;;4.10;83.80;;;;;;5036341;28;20228;-68
2022/12/04 04:36:28;;;;;;;25.27;13.85;;;4.10;83.80;;;;;;5038220;28;20255;-69
2022/12/04 04:39:01;;;;;;;26.70;14.38;;;4.10;83.80;;;;;;5039402;28;20228;-70
2022/12/04 04:41:39;;;;;;;26.88;14.02;;;4.10;83.80;;;;;;5039521;28;20198;-68
2022/12/04 04:44:15;;;;;;;24.92;13.55;;;4.10;83.80;;;;;;5039117;28;20235;-69
2022/12/04 04:46:48;;;;;;;27.35;14.63;;;4.10;83.80;;;;;;5040167;28;20205;-69
2022/12/04 04:49:19;;;;;;;27.90;13.63;;;4.10;83.90;;;;;;5040897;28;20292;-69
2022/12/04 04:51:47;;;;;;;24.02;14.10;;;4.10;84.00;;;;;;5037171;28;20243;-70
2022/12/04 04:54:17;;;;;;;25.80;16.08;;;4.10;84.00;;;;;;5035807;28;20225;-70
2022/12/04 04:56:47;;;;;;;26.75;13.93;;;4.10;84.10;;;;;;5039469;28;20250;-70
2022/12/04 04:59:15;;;;;;;28.85;14.43;;;4.10;84.00;;;;;;5039903;28;20200;-70
2022/12/04 05:01:45;;;;;;;26.25;14.80;;;4.20;84.00;;;;;;5040691;28;20196;-69
2022/12/04 05:04:14;;;;;;;27.42;14.85;;;4.20;84.10;;;;;;5038039;28;20312;-69
2022/12/04 05:06:43;;;;;;;23.67;13.60;;;4.20;84.00;;;;;;5034830;28;20200;-70
2022/12/04 05:09:11;;;;;;;24.35;13.80;;;4.20;83.90;;;;;;5037247;28;20193;-70
2022/12/04 05:11:39;;;;;;;26.67;14.80;;;4.20;83.90;;;;;;5041905;28;20213;-70
2022/12/04 05:14:08;;;;;;;25.55;14.45;;;4.20;83.90;;;;;;5039246;28;20254;-69
2022/12/04 05:16:38;;;;;;;27.38;14.43;;;4.20;84.10;;;;;;5036698;28;20320;-71
2022/12/04 05:21:53;;;;;;;24.75;13.85;;;4.20;84.10;;;;;;5053469;28;20929;-70
2022/12/04 05:24:22;;;;;;;25.58;14.85;;;4.10;84.10;;;;;;5038404;28;20356;-69
2022/12/04 05:26:50;;;;;;;24.10;14.13;;;4.10;84.10;;;;;;5039699;28;20631;-71
2022/12/04 05:29:18;;;;;;;24.98;12.40;;;4.10;84.20;;;;;;5034109;28;20209;-71
2022/12/04 05:31:46;;;;;;;26.65;13.85;;;4.10;84.20;;;;;;5034475;28;20297;-71
2022/12/04 05:34:14;;;;;;;27.00;14.27;;;4.10;84.30;;;;;;5040441;28;20225;-69
2022/12/04 05:36:42;;;;;;;25.52;15.20;;;4.10;84.30;;;;;;5039175;28;20200;-71
2022/12/04 05:39:11;;;;;;;26.40;14.45;;;4.20;84.30;;;;;;5041242;28;20197;-69
2022/12/04 05:41:39;;;;;;;25.45;13.77;;;4.20;84.30;;;;;;5037707;28;20260;-70
2022/12/04 05:44:07;;;;;;;25.50;14.60;;;4.20;84.40;;;;;;5036129;28;20223;-73
2022/12/04 05:46:35;;;;;;;27.10;14.70;;;4.20;84.30;;;;;;5037801;28;20204;-70
2022/12/04 05:49:03;;;;;;;24.15;13.50;;;4.20;84.40;;;;;;5050787;28;20215;-71
2022/12/04 05:51:31;;;;;;;27.65;15.30;;;4.10;84.40;;;;;;5037814;28;20238;-71
2022/12/04 05:53:59;;;;;;;29.35;14.35;;;4.20;84.40;;;;;;5034957;28;20357;-72
2022/12/04 05:56:28;;;;;;;26.60;13.65;;;4.20;84.50;;;;;;5037016;28;20213;-72
2022/12/04 05:58:57;;;;;;;24.25;13.30;;;4.20;84.50;;;;;;5037428;28;20204;-71
2022/12/04 06:01:25;;;;;;;31.08;16.75;;;4.10;84.50;;;;;;5034716;28;20209;-72
2022/12/04 06:03:53;;;;;;;29.50;15.02;;;4.20;84.50;;;;;;5038008;28;20216;-71
2022/12/04 06:06:23;;;;;;;30.40;15.80;;;4.10;84.50;;;;;;5039872;28;20250;-72
2022/12/04 06:08:53;;;;;;;34.17;17.85;;;4.20;84.60;;;;;;5041077;28;20250;-69
2022/12/04 06:11:23;;;;;;;28.48;14.70;;;4.20;84.70;;;;;;5038225;28;20205;-69
2022/12/04 06:13:53;;;;;;;25.80;14.45;;;4.20;84.70;;;;;;5037082;28;20228;-70
2022/12/04 06:16:23;;;;;;;29.40;15.80;;;4.20;84.60;;;;;;5039202;28;20832;-70
2022/12/04 06:18:53;;;;;;;28.02;15.43;;;4.20;84.60;;;;;;5043059;28;20201;-70
2022/12/04 06:21:23;;;;;;;26.80;14.05;;;4.20;84.60;;;;;;5036263;28;20205;-70
2022/12/04 06:23:51;;;;;;;25.85;13.98;;;4.20;84.70;;;;;;5040959;28;20221;-69
2022/12/04 06:26:20;;;;;;;28.63;15.68;;;4.20;84.70;;;;;;5037936;28;20208;-70
2022/12/04 06:28:48;;;;;;;24.88;15.30;;;4.30;84.70;;;;;;5039468;28;20255;-68
2022/12/04 06:31:18;;;;;;;26.42;15.43;;;4.30;84.70;;;;;;5039076;28;20201;-68
2022/12/04 06:33:47;;;;;;;28.77;15.13;;;4.20;84.80;;;;;;5037816;28;20248;-70
2022/12/04 06:36:17;;;;;;;26.23;14.43;;;4.20;84.80;;;;;;5035438;28;20304;-71
2022/12/04 06:38:45;;;;;;;30.90;16.13;;;4.20;84.80;;;;;;5037368;28;20204;-70
2022/12/04 06:41:16;;;;;;;28.42;16.10;;;4.20;84.90;;;;;;5040215;28;21188;-69
2022/12/04 06:43:44;;;;;;;28.40;16.08;;;4.20;85.00;;;;;;5042392;28;20217;-70
2022/12/04 06:46:14;;;;;;;28.35;14.90;;;4.30;85.00;;;;;;5041480;28;20262;-70
2022/12/04 06:48:44;;;;;;;28.20;15.25;;;4.30;84.90;;;;;;5041029;28;20220;-69
2022/12/04 06:51:13;;;;;;;26.95;14.05;;;4.30;84.80;;;;;;5039734;28;20209;-68
2022/12/04 06:53:42;;;;;;;32.50;16.02;;;4.30;84.80;;;;;;5040535;28;20224;-69
2022/12/04 06:56:13;;;;;;;28.33;15.13;;;4.30;84.90;;;;;;5042045;28;20594;-70
2022/12/04 06:58:41;;;;;;;28.63;15.95;;;4.20;84.90;;;;;;5041010;28;20205;-70
2022/12/04 07:01:10;;;;;;;30.17;15.60;;;4.20;84.90;;;;;;5038291;28;20216;-70
2022/12/04 07:03:39;;;;;;;31.73;16.60;;;4.20;84.90;;;;;;5039736;28;20257;-70
2022/12/04 07:06:16;;;;;;;29.95;16.40;;;4.20;84.90;;;;;;5041288;28;20793;-68
2022/12/04 07:08:46;;;;;;;33.20;17.85;;;4.20;85.00;;;;;;5043197;28;20274;-68
2022/12/04 07:11:15;;;;;;;33.25;17.13;;;4.20;85.10;;;;;;5040814;28;21012;-70
2022/12/04 07:13:43;;;;;;;27.40;16.73;;;4.20;85.10;;;;;;5040747;28;20220;-69
2022/12/04 07:16:14;;;;;;;27.15;16.38;;;4.20;85.30;;;;;;5040419;28;20201;-69
2022/12/04 07:18:42;;;;;;;25.10;14.85;;;4.20;85.10;;;;;;5039228;28;20201;-69
2022/12/04 07:21:14;;;;;;;26.95;15.93;;;4.20;85.20;;;;;;5043453;28;20263;-70
2022/12/04 07:23:45;;;;;;;27.05;14.95;;;4.20;85.20;;;;;;5042843;28;20225;-69
2022/12/04 07:26:14;;;;;;;29.23;15.98;;;4.20;85.30;;;;;;5043246;28;20212;-69
2022/12/04 07:28:44;;;;;;;30.85;16.63;;;4.20;85.20;;;;;;5039080;28;20212;-70
2022/12/04 07:31:14;;;;;;;31.27;15.82;;;4.20;85.30;;;;;;5038675;28;20589;-69
2022/12/04 07:33:43;;;;;;;27.23;16.50;;;4.20;85.30;;;;;;5041471;28;20232;-70
2022/12/04 07:36:13;;;;;;;27.15;15.70;;;4.20;85.40;;;;;;5042436;28;20275;-70
2022/12/04 07:38:42;;;;;;;26.83;15.52;;;4.20;85.40;;;;;;5039793;28;20205;-69
2022/12/04 07:41:12;;;;;;;35.33;19.65;;;4.20;85.40;;;;;;5038805;28;20204;-70
2022/12/04 07:43:41;;;;;;;27.67;16.58;;;4.20;85.40;;;;;;5047217;28;20217;-69
2022/12/04 07:46:12;;;;;;;30.35;16.33;;;4.20;85.50;;;;;;5039503;28;20189;-68
2022/12/04 07:48:40;;;;;;;25.25;15.40;;;4.20;85.40;;;;;;5040203;28;20204;-68
2022/12/04 07:51:10;;;;;;;30.58;16.83;;;4.20;85.50;;;;;;5038115;28;20205;-70
2022/12/04 07:53:39;;;;;;;24.60;14.85;;;4.30;85.50;;;;;;5036194;28;20627;-69
2022/12/04 07:56:09;;;;;;;28.75;17.13;;;4.30;85.60;;;;;;5038748;28;20220;-70
2022/12/04 07:58:39;;;;;;;30.45;18.63;;;4.30;85.50;;;;;;5038312;28;20208;-69
2022/12/04 08:01:11;;;;;;;32.97;18.50;;;4.30;85.50;;;;;;5039245;28;20625;-69
2022/12/04 08:03:41;;;;;;;38.13;20.38;;;4.30;85.60;;;;;;5038179;28;20672;-69
2022/12/04 08:06:17;;;;;;;36.17;19.90;;;4.30;85.70;;;;;;5037300;28;20205;-68
2022/12/04 08:08:45;;;;;;;42.33;20.90;;;4.30;85.70;;;;;;5038888;28;20209;-70
2022/12/04 08:11:15;;;;;;;31.85;18.40;;;4.30;85.70;;;;;;5044054;28;20270;-69
2022/12/04 08:13:45;;;;;;;32.05;17.15;;;4.40;85.70;;;;;;5041132;28;20232;-70
2022/12/04 08:16:13;;;;;;;29.67;16.77;;;4.40;85.70;;;;;;5038512;28;20205;-70
2022/12/04 08:18:45;;;;;;;43.33;21.80;;;4.40;85.60;;;;;;5038023;28;20205;-70
2022/12/04 08:21:15;;;;;;;31.73;19.48;;;4.40;85.60;;;;;;5041214;28;20285;-70
2022/12/04 08:23:44;;;;;;;30.10;17.38;;;4.40;85.70;;;;;;5033145;28;20221;-69
2022/12/04 08:26:12;;;;;;;29.30;17.42;;;4.40;85.70;;;;;;5040213;28;20193;-69
2022/12/04 08:28:41;;;;;;;30.35;17.33;;;4.40;85.70;;;;;;5037661;28;20768;-69
2022/12/04 08:31:13;;;;;;;31.75;18.05;;;4.40;85.70;;;;;;5037890;28;20211;-71
2022/12/04 08:33:43;;;;;;;32.03;18.70;;;4.40;85.70;;;;;;5037864;28;20213;-69
2022/12/04 08:36:13;;;;;;;36.00;19.70;;;4.40;85.80;;;;;;5038657;28;20219;-67
2022/12/04 08:38:41;;;;;;;30.50;16.38;;;4.40;85.80;;;;;;5038825;28;20666;-70
2022/12/04 08:41:12;;;;;;;35.58;19.20;;;4.50;85.80;;;;;;5036993;28;20205;-68
2022/12/04 08:43:41;;;;;;;31.23;16.60;;;4.50;85.90;;;;;;5037950;28;20278;-70
2022/12/04 08:46:13;;;;;;;32.58;18.77;;;4.50;85.80;;;;;;5040397;28;20263;-70
2022/12/04 08:48:41;;;;;;;25.42;15.27;;;4.50;85.80;;;;;;5041817;28;20213;-71
2022/12/04 08:51:14;;;;;;;30.15;17.88;;;4.50;85.80;;;;;;5032596;28;20206;-69
2022/12/04 08:53:42;;;;;;;28.25;16.60;;;4.50;85.80;;;;;;5040499;28;20244;-69
2022/12/04 08:56:10;;;;;;;25.02;15.15;;;4.50;85.80;;;;;;5045176;28;20244;-69
2022/12/04 08:58:38;;;;;;;25.27;14.25;;;4.50;85.80;;;;;;5037656;28;20236;-69
2022/12/04 09:01:08;;;;;;;31.55;18.67;;;4.50;85.70;;;;;;5036760;28;20207;-69
2022/12/04 09:03:38;;;;;;;31.67;20.15;;;4.50;85.80;;;;;;5033995;28;20286;-69
2022/12/04 09:06:07;;;;;;;27.08;15.43;;;4.50;85.80;;;;;;5041988;28;20216;-69
2022/12/04 09:08:36;;;;;;;34.90;18.20;;;4.60;85.80;;;;;;5036409;28;20252;-69
2022/12/04 09:11:06;;;;;;;28.65;16.65;;;4.60;85.80;;;;;;5035923;28;20201;-69
2022/12/04 09:13:34;;;;;;;27.65;17.10;;;4.60;85.90;;;;;;5041447;28;20282;-69
2022/12/04 09:16:05;;;;;;;24.20;14.95;;;4.60;85.90;;;;;;5037360;28;20204;-69
2022/12/04 09:18:34;;;;;;;25.25;15.55;;;4.70;85.80;;;;;;5033525;28;20213;-69
2022/12/04 09:21:07;;;;;;;24.60;15.40;;;4.70;85.70;;;;;;5037618;28;20250;-70
2022/12/04 09:23:37;;;;;;;25.00;15.15;;;4.70;85.60;;;;;;5040105;28;20220;-68
2022/12/04 09:26:07;;;;;;;29.25;16.75;;;4.70;85.70;;;;;;5042046;28;20262;-70
2022/12/04 09:28:34;;;;;;;27.48;17.60;;;4.70;85.80;;;;;;5039393;28;20211;-68
2022/12/04 09:31:04;;;;;;;33.17;20.63;;;4.70;85.80;;;;;;5034223;28;20216;-69
2022/12/04 09:33:33;;;;;;;33.22;20.05;;;4.70;85.80;;;;;;5036214;28;20709;-68
2022/12/04 09:36:01;;;;;;;27.60;16.75;;;4.70;85.80;;;;;;5035586;28;20244;-69
2022/12/04 09:38:31;;;;;;;30.55;20.13;;;4.70;85.70;;;;;;5034541;28;20204;-70
2022/12/04 09:41:05;;;;;;;24.95;15.07;;;4.70;85.70;;;;;;5035161;28;20354;-71
2022/12/04 09:43:39;;;;;;;26.33;16.80;;;4.70;85.70;;;;;;5040214;28;20244;-70
2022/12/04 09:46:18;;;;;;;29.02;16.20;;;4.70;85.70;;;;;;5037330;28;20193;-69
2022/12/04 09:48:48;;;;;;;25.83;15.18;;;4.80;85.70;;;;;;5040449;28;20741;-70
2022/12/04 09:51:19;;;;;;;24.88;13.40;;;4.80;85.60;;;;;;5035866;28;20197;-70
2022/12/04 09:53:54;;;;;;;28.10;16.13;;;4.80;85.60;;;;;;5039674;28;20717;-70
2022/12/04 09:56:25;;;;;;;25.35;13.70;;;4.80;85.60;;;;;;5037383;28;20257;-69
2022/12/04 09:58:59;;;;;;;25.80;15.77;;;4.80;85.70;;;;;;5038421;28;20209;-69
2022/12/04 10:01:32;;;;;;;27.33;16.08;;;4.80;85.70;;;;;;5036452;28;20283;-70
2022/12/04 10:04:00;;;;;;;25.77;14.00;;;4.80;85.60;;;;;;5037763;28;20281;-70
2022/12/04 10:06:39;;;;;;;27.58;16.30;;;4.80;85.60;;;;;;5039395;28;20824;-70
2022/12/04 10:09:15;;;;;;;23.83;13.77;;;4.80;85.70;;;;;;5034304;28;20188;-69
2022/12/04 10:11:51;;;;;;;30.33;17.08;;;4.80;85.70;;;;;;5037189;28;20208;-69
2022/12/04 10:14:39;;;;;;;22.20;13.88;;;4.80;85.70;;;;;;5036931;28;20317;-69
2022/12/04 10:17:22;;;;;;;21.08;13.15;;;4.90;85.70;;;;;;5035915;28;20213;-69
2022/12/04 10:20:07;;;;;;;24.02;15.05;;;4.90;85.70;;;;;;5034288;28;20196;-69
2022/12/04 10:22:44;;;;;;;24.42;13.75;;;4.90;85.60;;;;;;5033839;28;20204;-69
2022/12/04 10:25:18;;;;;;;24.02;15.02;;;4.90;85.50;;;;;;5035875;28;20212;-69
2022/12/04 10:27:53;;;;;;;27.08;16.42;;;4.90;85.60;;;;;;5038068;28;20208;-70
2022/12/04 10:30:23;;;;;;;54.35;26.50;;;4.90;85.60;;;;;;5031404;28;20196;-68
2022/12/04 10:35:43;;;;;;;27.70;15.30;;;4.90;85.70;;;;;;5033198;28;20734;-68
2022/12/04 10:38:22;;;;;;;21.65;13.13;;;5.00;85.50;;;;;;5034825;28;20315;-68
2022/12/04 10:40:56;;;;;;;28.02;16.38;;;4.90;85.50;;;;;;5036030;28;20199;-69
2022/12/04 10:43:34;;;;;;;24.20;13.20;;;5.00;85.50;;;;;;5036915;28;20227;-68
2022/12/04 10:46:02;;;;;;;22.25;14.60;;;5.00;85.60;;;;;;5037950;28;20203;-70
2022/12/04 10:48:34;;;;;;;22.90;13.55;;;5.00;85.50;;;;;;5037970;28;20693;-68
2022/12/04 10:51:03;;;;;;;22.42;11.48;;;5.00;85.60;;;;;;5039405;28;20702;-69
2022/12/04 10:53:34;;;;;;;19.83;11.57;;;5.00;85.50;;;;;;5051054;28;20269;-69
2022/12/04 10:56:12;;;;;;;20.15;11.98;;;5.00;85.50;;;;;;5035073;28;20228;-70
2022/12/04 10:58:40;;;;;;;23.55;13.40;;;5.00;85.60;;;;;;5032470;28;20205;-70
2022/12/04 11:01:11;;;;;;;19.13;11.27;;;5.00;85.60;;;;;;5033341;28;20193;-69
2022/12/04 11:03:41;;;;;;;20.00;12.93;;;5.00;85.60;;;;;;5034375;28;20237;-69
2022/12/04 11:06:10;;;;;;;23.98;13.35;;;5.00;85.50;;;;;;5037449;28;20205;-69
2022/12/04 11:08:41;;;;;;;19.70;13.40;;;5.00;85.50;;;;;;5034379;28;20199;-70
2022/12/04 11:11:13;;;;;;;18.60;11.70;;;5.00;85.60;;;;;;5033719;28;20197;-70
2022/12/04 11:13:41;;;;;;;20.23;13.10;;;5.00;85.50;;;;;;5033347;28;20225;-70
2022/12/04 11:16:31;;;;;;;21.48;12.35;;;5.00;85.50;;;;;;5030848;28;20710;-69
2022/12/04 11:19:00;;;;;;;23.63;12.02;;;5.00;85.40;;;;;;5032906;28;20197;-70
2022/12/04 11:21:30;;;;;;;23.17;12.40;;;5.00;85.50;;;;;;5037975;28;20209;-68
2022/12/04 11:23:58;;;;;;;19.60;11.07;;;5.10;85.50;;;;;;5033970;28;20258;-68
2022/12/04 11:26:34;;;;;;;26.05;14.27;;;5.10;85.40;;;;;;5028441;28;20204;-70
2022/12/04 11:29:04;;;;;;;17.33;10.63;;;5.10;85.40;;;;;;5037496;28;20203;-68
2022/12/04 11:31:33;;;;;;;28.17;14.25;;;5.10;85.50;;;;;;5034727;28;20243;-71
2022/12/04 11:34:04;;;;;;;21.27;12.68;;;5.10;85.50;;;;;;5036721;28;20221;-70
2022/12/04 11:36:35;;;;;;;30.95;14.98;;;5.10;85.50;;;;;;5039353;28;20208;-70
2022/12/04 11:39:07;;;;;;;21.63;13.50;;;5.10;85.40;;;;;;5037677;28;20201;-68
2022/12/04 11:41:37;;;;;;;27.05;15.30;;;5.10;85.40;;;;;;5036375;28;20297;-69
2022/12/04 11:44:06;;;;;;;28.67;14.88;;;5.10;85.40;;;;;;5040770;28;20554;-68
2022/12/04 11:46:35;;;;;;;26.70;13.35;;;5.10;85.30;;;;;;5039574;28;20217;-70
2022/12/04 11:49:04;;;;;;;23.13;13.95;;;5.10;85.30;;;;;;5035876;28;20193;-71
2022/12/04 11:51:43;;;;;;;27.13;15.63;;;5.10;85.40;;;;;;5037291;28;20213;-70
2022/12/04 11:54:25;;;;;;;22.80;14.35;;;5.10;85.40;;;;;;5034386;28;20227;-70
2022/12/04 11:57:08;;;;;;;29.83;17.05;;;5.10;85.30;;;;;;5040669;28;20889;-69
2022/12/04 11:59:49;;;;;;;25.80;14.65;;;5.10;85.30;;;;;;5039138;28;20262;-70
2022/12/04 12:02:35;;;;;;;26.92;15.18;;;5.10;85.20;;;;;;5038035;28;20266;-69
2022/12/04 12:05:27;;;;;;;26.38;14.60;;;5.10;85.30;;;;;;5039013;28;20228;-70
2022/12/04 12:08:03;;;;;;;24.83;14.38;;;5.10;85.30;;;;;;5030876;28;20580;-71
2022/12/04 12:10:38;;;;;;;28.98;15.50;;;5.10;85.30;;;;;;5037141;28;20201;-70
2022/12/04 12:13:24;;;;;;;28.42;15.35;;;5.00;85.30;;;;;;5038930;28;20205;-70
2022/12/04 12:16:00;;;;;;;35.17;15.90;;;5.00;85.30;;;;;;5038452;28;20312;-69
2022/12/04 12:18:46;;;;;;;29.98;16.83;;;5.00;85.40;;;;;;5033760;28;20197;-69
2022/12/04 12:21:19;;;;;;;26.77;14.38;;;5.10;85.30;;;;;;5039740;28;20273;-70
2022/12/04 12:23:59;;;;;;;28.77;15.55;;;5.10;85.30;;;;;;5039283;28;20878;-69
2022/12/04 12:26:36;;;;;;;31.90;16.48;;;5.00;85.30;;;;;;5038118;28;20193;-69
2022/12/04 12:29:15;;;;;;;28.98;15.52;;;5.00;85.40;;;;;;5036125;28;20824;-70
2022/12/04 12:32:16;;;;;;;31.98;17.80;;;5.00;85.30;;;;;;5038169;28;20215;-69
2022/12/04 12:34:45;;;;;;;22.45;13.38;;;5.10;85.50;;;;;;5038293;28;20220;-68
2022/12/04 12:37:23;;;;;;;23.70;14.57;;;5.10;85.40;;;;;;5039424;28;20298;-69
2022/12/04 12:39:58;;;;;;;25.50;14.75;;;5.10;85.30;;;;;;5038793;28;20222;-68
2022/12/04 12:42:33;;;;;;;22.38;13.40;;;5.10;85.30;;;;;;5038374;28;20685;-69
2022/12/04 12:45:07;;;;;;;27.10;14.60;;;5.10;85.10;;;;;;5039174;28;20236;-69
2022/12/04 12:47:41;;;;;;;31.70;20.13;;;5.10;85.30;;;;;;5037785;28;20200;-70
2022/12/04 12:50:15;;;;;;;31.98;20.40;;;5.10;85.40;;;;;;5036959;28;20725;-69
2022/12/04 12:52:51;;;;;;;28.83;18.60;;;5.10;85.40;;;;;;5037683;28;20208;-70
2022/12/04 12:55:23;;;;;;;26.98;15.23;;;5.20;85.40;;;;;;5041390;28;20297;-69
2022/12/04 12:58:00;;;;;;;27.75;15.18;;;5.20;85.20;;;;;;5037990;28;20220;-69
2022/12/04 13:00:32;;;;;;;29.58;17.15;;;5.20;85.10;;;;;;5037899;28;20196;-69
2022/12/04 13:03:05;;;;;;;35.13;18.35;;;5.10;85.00;;;;;;5035939;28;20222;-70
2022/12/04 13:05:37;;;;;;;25.23;14.68;;;5.20;85.10;;;;;;5037096;28;20196;-70
2022/12/04 13:08:15;;;;;;;30.33;15.88;;;5.10;85.10;;;;;;5034423;28;20201;-69
2022/12/04 13:10:45;;;;;;;26.50;14.02;;;5.20;85.20;;;;;;5037126;28;20254;-69
2022/12/04 13:13:20;;;;;;;25.90;14.93;;;5.20;85.30;;;;;;5039445;28;20217;-69
2022/12/04 13:15:53;;;;;;;22.75;13.60;;;5.20;85.40;;;;;;5037979;28;20203;-69